Time;durP1;ratioP1;P1;durP2;ratioP2;P2;SDS_P1;SDS_P2;PMS_P1;PMS_P2;Temp;Humidity;BMP_temperature;BMP_pressure;BME280_temperature;BME280_humidity;BME280_pressure;Samples;Min_cycle;Max_cycle;Signal;HPM_P1;HPM_P2
2023/12/20 00:00:51;;;;;;;3.30;1.73;;;5.80;99.90;;;;;;4916565;29;20095;-67
2023/12/20 00:03:23;;;;;;;3.33;1.85;;;5.90;99.90;;;;;;4912627;29;20052;-68
2023/12/20 00:05:56;;;;;;;3.55;2.13;;;5.80;99.90;;;;;;4915276;29;20601;-68
2023/12/20 00:08:22;;;;;;;4.90;2.33;;;5.80;99.90;;;;;;4898836;29;20151;-68
2023/12/20 00:10:54;;;;;;;3.53;1.90;;;5.80;99.90;;;;;;4914962;29;20498;-68
2023/12/20 00:13:26;;;;;;;2.45;1.88;;;5.80;99.90;;;;;;4906794;29;20056;-68
2023/12/20 00:15:58;;;;;;;5.45;1.95;;;5.80;99.90;;;;;;4903333;29;20040;-67
2023/12/20 00:18:30;;;;;;;3.63;1.98;;;5.70;99.90;;;;;;4912952;29;20049;-67
2023/12/20 00:21:02;;;;;;;2.60;1.70;;;5.70;99.90;;;;;;4914551;29;20063;-67
2023/12/20 00:23:34;;;;;;;2.67;1.60;;;5.60;99.90;;;;;;4907653;29;20413;-67
2023/12/20 00:26:05;;;;;;;3.35;1.60;;;5.60;99.90;;;;;;4885951;29;20059;-68
2023/12/20 00:28:37;;;;;;;2.65;1.60;;;5.70;99.90;;;;;;4914250;29;20052;-67
2023/12/20 00:31:09;;;;;;;2.33;1.50;;;5.80;99.90;;;;;;4912601;29;20058;-67
2023/12/20 00:33:36;;;;;;;2.25;1.52;;;5.80;99.90;;;;;;4916138;29;20095;-67
2023/12/20 00:36:08;;;;;;;2.80;2.05;;;5.90;99.90;;;;;;4914612;29;20600;-67
2023/12/20 00:38:40;;;;;;;3.65;1.88;;;5.90;99.90;;;;;;4913484;29;20076;-67
2023/12/20 00:41:12;;;;;;;2.53;1.50;;;5.90;99.90;;;;;;4913754;29;20040;-68
2023/12/20 00:43:44;;;;;;;2.40;1.48;;;5.90;99.90;;;;;;4907913;29;20513;-68
2023/12/20 00:46:16;;;;;;;2.38;1.55;;;5.90;99.90;;;;;;4913594;29;20044;-68
2023/12/20 00:48:48;;;;;;;2.67;1.55;;;5.90;99.90;;;;;;4915879;29;20059;-68
2023/12/20 00:51:20;;;;;;;1.65;1.20;;;5.90;99.90;;;;;;4914637;29;20059;-68
2023/12/20 00:53:49;;;;;;;3.33;2.00;;;5.90;99.90;;;;;;4926515;29;20147;-68
2023/12/20 00:56:21;;;;;;;1.73;1.48;;;6.00;99.90;;;;;;4915792;29;20059;-67
2023/12/20 00:58:53;;;;;;;2.20;1.42;;;6.00;99.90;;;;;;4913236;29;20434;-68
2023/12/20 01:01:25;;;;;;;3.05;1.60;;;5.90;99.90;;;;;;4913148;29;20051;-67
2023/12/20 01:03:57;;;;;;;1.48;1.27;;;5.90;99.90;;;;;;4913012;29;20414;-67
2023/12/20 01:06:28;;;;;;;2.47;1.70;;;5.80;99.90;;;;;;4915559;29;20429;-68
2023/12/20 01:09:00;;;;;;;2.35;1.60;;;5.80;99.90;;;;;;4915239;29;20048;-67
2023/12/20 01:11:28;;;;;;;2.22;1.60;;;5.80;99.90;;;;;;4914793;29;20067;-68
2023/12/20 01:14:00;;;;;;;2.67;1.65;;;5.80;99.90;;;;;;4929793;29;20052;-67
2023/12/20 01:16:32;;;;;;;2.53;1.70;;;5.70;99.90;;;;;;4912442;29;20509;-68
2023/12/20 01:19:03;;;;;;;2.60;1.63;;;5.70;99.90;;;;;;4914200;29;20051;-67
2023/12/20 01:21:35;;;;;;;2.00;1.55;;;5.70;99.90;;;;;;4900605;29;20424;-67
2023/12/20 01:24:07;;;;;;;2.42;1.77;;;5.70;99.90;;;;;;4913702;29;20071;-67
2023/12/20 01:26:39;;;;;;;2.13;1.27;;;5.60;99.90;;;;;;4901394;29;20057;-68
2023/12/20 01:29:11;;;;;;;2.15;1.50;;;5.60;99.90;;;;;;4915127;29;20612;-68
2023/12/20 01:31:42;;;;;;;2.50;1.80;;;5.60;99.90;;;;;;4910870;29;20052;-68
2023/12/20 01:34:14;;;;;;;2.15;1.48;;;5.60;99.90;;;;;;4907279;29;20047;-68
2023/12/20 01:36:46;;;;;;;2.70;1.70;;;5.50;99.90;;;;;;4913586;29;20056;-67
2023/12/20 01:39:18;;;;;;;2.17;1.20;;;5.50;99.90;;;;;;4923812;29;20056;-67
2023/12/20 01:41:45;;;;;;;2.63;1.42;;;5.40;99.90;;;;;;4914948;29;20068;-68
2023/12/20 01:44:17;;;;;;;3.05;1.77;;;5.40;99.90;;;;;;4914880;29;20054;-67
2023/12/20 01:46:49;;;;;;;2.60;1.48;;;5.40;99.90;;;;;;4914940;29;20048;-67
2023/12/20 01:49:21;;;;;;;1.70;1.33;;;5.40;99.90;;;;;;4913950;29;20056;-68
2023/12/20 01:51:54;;;;;;;2.97;1.88;;;5.40;99.90;;;;;;4927119;29;20072;-67
2023/12/20 01:54:26;;;;;;;2.22;1.70;;;5.40;99.90;;;;;;4914812;29;20048;-68
2023/12/20 01:56:53;;;;;;;2.65;1.77;;;5.30;99.90;;;;;;4914801;29;20051;-67
2023/12/20 01:59:21;;;;;;;2.45;1.77;;;5.30;99.90;;;;;;4914413;29;20140;-68
2023/12/20 02:01:53;;;;;;;2.97;1.80;;;5.30;99.90;;;;;;4913110;29;20037;-67
2023/12/20 02:04:20;;;;;;;2.60;1.75;;;5.20;99.90;;;;;;4914136;29;20040;-68
2023/12/20 02:06:53;;;;;;;2.70;1.80;;;5.20;99.90;;;;;;4914314;29;20134;-67
2023/12/20 02:09:25;;;;;;;3.20;1.98;;;5.20;99.90;;;;;;4911268;29;20070;-68
2023/12/20 02:11:57;;;;;;;1.70;1.40;;;5.20;99.90;;;;;;4914305;29;20048;-68
2023/12/20 02:14:29;;;;;;;2.65;1.90;;;5.20;99.90;;;;;;4913887;29;20036;-67
2023/12/20 02:17:01;;;;;;;2.75;1.90;;;5.20;99.90;;;;;;4914183;29;20067;-67
2023/12/20 02:19:32;;;;;;;2.83;2.15;;;5.20;99.90;;;;;;4907911;29;20045;-68
2023/12/20 02:22:11;;;;;;;2.47;1.77;;;5.20;99.90;;;;;;4911019;29;20044;-68
2023/12/20 02:24:38;;;;;;;;;;;5.10;99.90;;;;;;4924094;29;20048;-68
2023/12/20 02:27:10;;;;;;;1.92;1.73;;;5.10;99.90;;;;;;4918035;29;19923;-68
2023/12/20 02:29:42;;;;;;;3.55;1.80;;;5.10;99.90;;;;;;4917800;29;20139;-68
2023/12/20 02:32:14;;;;;;;4.25;2.25;;;5.10;99.90;;;;;;4917875;29;20416;-68
2023/12/20 02:34:48;;;;;;;3.58;1.90;;;5.00;99.90;;;;;;4913413;29;20048;-68
2023/12/20 02:37:20;;;;;;;3.05;2.10;;;5.00;99.90;;;;;;4917875;29;20139;-67
2023/12/20 02:39:52;;;;;;;3.53;1.80;;;5.00;99.90;;;;;;4917510;29;20502;-68
2023/12/20 02:42:23;;;;;;;2.42;1.90;;;5.10;99.90;;;;;;4917671;29;20040;-68
2023/12/20 02:44:55;;;;;;;3.00;2.17;;;5.00;99.90;;;;;;4917385;29;20468;-68
2023/12/20 02:47:22;;;;;;;2.60;1.83;;;5.00;99.90;;;;;;4914496;29;20548;-67
2023/12/20 02:49:54;;;;;;;2.97;2.00;;;5.00;99.90;;;;;;4917484;29;20047;-67
2023/12/20 02:52:28;;;;;;;3.97;2.58;;;5.00;99.90;;;;;;4901297;29;20059;-67
2023/12/20 02:55:00;;;;;;;3.03;2.40;;;5.00;99.90;;;;;;4917270;29;20052;-67
2023/12/20 02:57:27;;;;;;;2.75;2.15;;;4.90;99.90;;;;;;4917415;29;20078;-67
2023/12/20 02:59:59;;;;;;;3.65;2.33;;;4.80;99.90;;;;;;4915770;29;20115;-66
2023/12/20 03:02:31;;;;;;;4.00;2.85;;;4.70;99.90;;;;;;4897395;29;20567;-67
2023/12/20 03:05:03;;;;;;;3.15;2.58;;;4.60;99.90;;;;;;4915954;29;20063;-67
2023/12/20 03:07:37;;;;;;;4.80;2.60;;;4.60;99.90;;;;;;4916207;29;20048;-67
2023/12/20 03:10:09;;;;;;;4.38;2.75;;;4.50;99.90;;;;;;4889379;29;20062;-67
2023/12/20 03:12:42;;;;;;;3.15;2.65;;;4.50;99.90;;;;;;4905938;29;20103;-67
2023/12/20 03:15:13;;;;;;;4.55;3.17;;;4.50;99.90;;;;;;4915775;29;20448;-67
2023/12/20 03:17:40;;;;;;;4.47;2.85;;;4.40;99.90;;;;;;4916986;29;20047;-67
2023/12/20 03:20:12;;;;;;;4.30;2.88;;;4.40;99.90;;;;;;4908422;29;20513;-67
2023/12/20 03:22:39;;;;;;;4.13;2.75;;;4.40;99.90;;;;;;4917018;29;20054;-67
2023/12/20 03:25:10;;;;;;;3.92;2.67;;;4.40;99.90;;;;;;4909220;29;20048;-67
2023/12/20 03:27:40;;;;;;;3.30;2.60;;;4.40;99.90;;;;;;4916881;29;20048;-67
2023/12/20 03:30:12;;;;;;;3.22;2.50;;;4.30;99.90;;;;;;4916675;29;20044;-67
2023/12/20 03:32:45;;;;;;;4.75;2.60;;;4.40;99.90;;;;;;4915913;29;20048;-67
2023/12/20 03:35:17;;;;;;;3.43;2.83;;;4.40;99.90;;;;;;4899538;29;20104;-67
2023/12/20 03:37:49;;;;;;;3.80;2.58;;;4.40;99.90;;;;;;4914423;29;20059;-67
2023/12/20 03:40:22;;;;;;;5.93;3.05;;;4.40;99.90;;;;;;4916748;29;20793;-67
2023/12/20 03:42:54;;;;;;;3.40;2.70;;;4.40;99.90;;;;;;4916765;29;20059;-67
2023/12/20 03:45:26;;;;;;;7.00;2.08;;;4.40;99.90;;;;;;4915331;29;20535;-67
2023/12/20 03:47:57;;;;;;;5.57;3.08;;;4.40;99.90;;;;;;4916545;29;20047;-67
2023/12/20 03:50:24;;;;;;;4.70;3.15;;;4.40;99.90;;;;;;4904836;29;20134;-67
2023/12/20 03:52:56;;;;;;;4.85;2.80;;;4.40;99.90;;;;;;4913818;29;20445;-67
2023/12/20 03:55:28;;;;;;;4.30;3.13;;;4.40;99.90;;;;;;4916264;29;20051;-67
2023/12/20 03:58:00;;;;;;;4.20;2.95;;;4.40;99.90;;;;;;4900995;29;20040;-67
2023/12/20 04:00:32;;;;;;;4.70;3.30;;;4.40;99.90;;;;;;4914439;29;20056;-67
2023/12/20 04:03:04;;;;;;;3.58;2.95;;;4.40;99.90;;;;;;4916147;29;20046;-67
2023/12/20 04:05:36;;;;;;;4.45;2.97;;;4.40;99.90;;;;;;4914154;29;20564;-67
2023/12/20 04:08:04;;;;;;;4.32;3.10;;;4.40;99.90;;;;;;4916030;29;20420;-67
2023/12/20 04:10:37;;;;;;;4.00;3.30;;;4.40;99.90;;;;;;4916187;29;20059;-67
2023/12/20 04:13:09;;;;;;;5.78;3.40;;;4.30;99.90;;;;;;4908215;29;20048;-67
2023/12/20 04:15:41;;;;;;;4.28;2.78;;;4.30;99.90;;;;;;4915825;29;20067;-67
2023/12/20 04:18:12;;;;;;;5.32;3.50;;;4.30;99.90;;;;;;4915482;29;20040;-67
2023/12/20 04:20:45;;;;;;;3.78;3.17;;;4.30;99.90;;;;;;4913564;29;20052;-67
2023/12/20 04:23:17;;;;;;;4.45;3.28;;;4.30;99.90;;;;;;4915366;29;20040;-67
2023/12/20 04:25:49;;;;;;;5.43;3.60;;;4.30;99.90;;;;;;4913455;29;20052;-67
2023/12/20 04:28:21;;;;;;;4.97;3.40;;;4.30;99.90;;;;;;4900176;29;20120;-67
2023/12/20 04:30:53;;;;;;;6.35;3.72;;;4.30;99.90;;;;;;4916295;29;20547;-67
2023/12/20 04:33:24;;;;;;;6.28;3.60;;;4.30;99.90;;;;;;4916208;29;20036;-66
2023/12/20 04:35:57;;;;;;;5.22;4.00;;;4.30;99.90;;;;;;4899515;29;20452;-67
2023/12/20 04:38:24;;;;;;;5.80;3.80;;;4.30;99.90;;;;;;4915994;29;20075;-66
2023/12/20 04:40:56;;;;;;;5.22;3.67;;;4.30;99.90;;;;;;4918160;29;20040;-67
2023/12/20 04:43:23;;;;;;;4.68;3.58;;;4.30;99.90;;;;;;4916009;29;20058;-67
2023/12/20 04:45:49;;;;;;;5.93;4.30;;;4.30;99.90;;;;;;4907380;29;20584;-67
2023/12/20 04:48:21;;;;;;;6.53;4.28;;;4.40;99.90;;;;;;4915912;29;20040;-67
2023/12/20 04:50:53;;;;;;;7.43;4.45;;;4.40;99.90;;;;;;4915881;29;20056;-67
2023/12/20 04:53:25;;;;;;;4.75;3.72;;;4.40;99.90;;;;;;4915796;29;20147;-67
2023/12/20 04:55:57;;;;;;;6.13;4.60;;;4.40;99.90;;;;;;4915663;29;20048;-68
2023/12/20 04:58:29;;;;;;;7.07;4.30;;;4.40;99.90;;;;;;4915580;29;20080;-67
2023/12/20 05:01:01;;;;;;;6.95;3.90;;;4.40;99.90;;;;;;4913000;29;20473;-67
2023/12/20 05:03:33;;;;;;;6.07;4.28;;;4.40;99.90;;;;;;4927564;29;20382;-67
2023/12/20 05:06:05;;;;;;;4.85;3.00;;;4.40;99.90;;;;;;4917612;29;20534;-66
2023/12/20 05:08:37;;;;;;;5.72;3.08;;;4.40;99.90;;;;;;4903193;29;20052;-67
2023/12/20 05:11:09;;;;;;;4.45;3.33;;;4.50;99.90;;;;;;4915475;29;20348;-67
2023/12/20 05:13:41;;;;;;;6.03;3.70;;;4.40;99.90;;;;;;4913537;29;20452;-67
2023/12/20 05:16:09;;;;;;;3.78;3.15;;;4.40;99.90;;;;;;4913951;29;20067;-68
2023/12/20 05:18:35;;;;;;;6.75;3.30;;;4.40;99.90;;;;;;4912223;29;20135;-70
2023/12/20 05:21:07;;;;;;;5.65;3.17;;;4.40;99.90;;;;;;4914065;29;20079;-67
2023/12/20 05:23:39;;;;;;;5.03;3.80;;;4.40;99.90;;;;;;4913223;29;20055;-67
2023/12/20 05:26:11;;;;;;;4.20;3.00;;;4.40;99.90;;;;;;4912278;29;20063;-67
2023/12/20 05:28:38;;;;;;;5.13;4.00;;;4.40;99.90;;;;;;4917002;29;20404;-67
2023/12/20 05:31:10;;;;;;;4.30;3.20;;;4.30;99.90;;;;;;4913922;29;20070;-67
2023/12/20 05:33:42;;;;;;;5.30;3.67;;;4.30;99.90;;;;;;4905588;29;20052;-67
2023/12/20 05:36:15;;;;;;;4.53;3.50;;;4.30;99.90;;;;;;4914166;29;20052;-67
2023/12/20 05:38:46;;;;;;;4.80;3.15;;;4.30;99.90;;;;;;4924859;29;20053;-67
2023/12/20 05:41:18;;;;;;;4.70;3.17;;;4.20;99.90;;;;;;4914212;29;20036;-67
2023/12/20 05:43:50;;;;;;;5.15;3.83;;;4.20;99.90;;;;;;4913883;29;20119;-67
2023/12/20 05:46:17;;;;;;;5.25;3.33;;;4.20;99.90;;;;;;4917526;29;20048;-67
2023/12/20 05:48:49;;;;;;;5.25;3.53;;;4.10;99.90;;;;;;4909532;29;20031;-67
2023/12/20 05:51:21;;;;;;;7.03;3.70;;;4.10;99.90;;;;;;4912260;29;20501;-67
2023/12/20 05:53:52;;;;;;;5.60;3.38;;;4.10;99.90;;;;;;4913722;29;20079;-67
2023/12/20 05:56:24;;;;;;;6.30;4.00;;;4.10;99.90;;;;;;4905642;29;20051;-67
2023/12/20 05:58:57;;;;;;;5.38;3.92;;;4.00;99.90;;;;;;4912548;29;20230;-67
2023/12/20 06:01:24;;;;;;;6.45;4.35;;;4.00;99.90;;;;;;4906498;29;20474;-67
2023/12/20 06:03:56;;;;;;;7.45;4.55;;;3.90;99.90;;;;;;4914656;29;20048;-66
2023/12/20 06:06:28;;;;;;;9.25;5.22;;;3.90;99.90;;;;;;4914795;29;20048;-67
2023/12/20 06:09:00;;;;;;;6.70;4.53;;;3.90;99.90;;;;;;4891169;29;20044;-67
2023/12/20 06:11:32;;;;;;;6.63;4.90;;;3.90;99.90;;;;;;4913534;29;20044;-67
2023/12/20 06:13:59;;;;;;;7.63;5.03;;;3.80;99.90;;;;;;4897622;29;20049;-67
2023/12/20 06:16:31;;;;;;;7.22;5.20;;;3.80;99.90;;;;;;4914705;29;20063;-67
2023/12/20 06:19:03;;;;;;;7.30;5.97;;;3.80;99.90;;;;;;4914592;29;20058;-66
2023/12/20 06:21:29;;;;;;;9.23;6.30;;;3.70;99.90;;;;;;4914685;29;20044;-68
2023/12/20 06:24:03;;;;;;;9.35;5.90;;;3.70;99.90;;;;;;4909805;29;20147;-66
2023/12/20 06:26:35;;;;;;;7.63;5.85;;;3.70;99.90;;;;;;4910945;29;20108;-66
2023/12/20 06:29:07;;;;;;;8.20;6.53;;;3.70;99.90;;;;;;4911371;29;20044;-66
2023/12/20 06:31:39;;;;;;;9.43;7.00;;;3.70;99.90;;;;;;4912550;29;20050;-67
2023/12/20 06:34:11;;;;;;;11.48;6.85;;;3.70;99.90;;;;;;4914218;29;20047;-67
2023/12/20 06:36:43;;;;;;;12.20;6.93;;;3.70;99.90;;;;;;4925232;29;20513;-67
2023/12/20 06:39:15;;;;;;;12.57;6.35;;;3.60;99.90;;;;;;4911840;29;20420;-67
2023/12/20 06:41:47;;;;;;;10.02;6.75;;;3.70;99.90;;;;;;4910452;29;20412;-67
2023/12/20 06:44:19;;;;;;;9.45;6.80;;;3.70;99.90;;;;;;4911073;29;20044;-67
2023/12/20 06:46:50;;;;;;;8.10;5.93;;;3.70;99.90;;;;;;4925620;29;20051;-67
2023/12/20 06:49:22;;;;;;;15.35;8.68;;;3.70;99.90;;;;;;4911834;29;20070;-67
2023/12/20 06:51:54;;;;;;;9.48;6.65;;;3.70;99.90;;;;;;4911372;29;20048;-67
2023/12/20 06:54:26;;;;;;;11.80;9.70;;;3.80;99.90;;;;;;4910045;29;20648;-68
2023/12/20 06:56:58;;;;;;;12.32;9.65;;;3.80;99.90;;;;;;4909230;29;20117;-67
2023/12/20 06:59:25;;;;;;;9.85;7.25;;;3.80;99.90;;;;;;4911715;29;20055;-67
2023/12/20 07:01:57;;;;;;;8.97;6.83;;;3.80;99.90;;;;;;4910436;29;20602;-67
2023/12/20 07:04:30;;;;;;;9.80;7.25;;;3.80;99.90;;;;;;4909911;29;20413;-67
2023/12/20 07:07:02;;;;;;;10.77;6.90;;;3.80;99.90;;;;;;4910137;29;20048;-67
2023/12/20 07:09:29;;;;;;;8.30;6.13;;;3.80;99.90;;;;;;4914530;29;20496;-67
2023/12/20 07:12:02;;;;;;;9.35;6.78;;;3.80;99.90;;;;;;4916414;29;20513;-67
2023/12/20 07:14:34;;;;;;;8.30;5.88;;;3.80;99.90;;;;;;4917281;29;20036;-67
2023/12/20 07:17:11;;;;;;;8.90;5.97;;;3.80;99.90;;;;;;4917166;29;20054;-67
2023/12/20 07:19:38;;;;;;;8.82;5.57;;;3.80;99.90;;;;;;4915031;29;20100;-67
2023/12/20 07:22:06;;;;;;;8.30;5.97;;;3.80;99.90;;;;;;4913553;29;20051;-67
2023/12/20 07:24:38;;;;;;;8.18;6.32;;;3.80;99.90;;;;;;4915562;29;20127;-67
2023/12/20 07:27:10;;;;;;;11.30;6.80;;;3.80;99.90;;;;;;4912465;29;20048;-67
2023/12/20 07:29:42;;;;;;;8.50;5.35;;;3.80;99.90;;;;;;4917412;29;20536;-67
2023/12/20 07:32:09;;;;;;;8.73;5.85;;;3.80;99.90;;;;;;4915225;29;20052;-67
2023/12/20 07:35:06;;;;;;;7.10;5.18;;;3.80;99.90;;;;;;4913437;29;20051;-67
2023/12/20 07:37:38;;;;;;;10.52;5.78;;;3.90;99.90;;;;;;4929545;29;20462;-67
2023/12/20 07:40:06;;;;;;;7.93;5.60;;;3.90;99.90;;;;;;4914306;29;20054;-67
2023/12/20 07:42:38;;;;;;;6.57;4.60;;;3.90;99.90;;;;;;4914112;29;20048;-67
2023/12/20 07:45:13;;;;;;;7.40;5.38;;;3.90;99.90;;;;;;4911599;29;20044;-67
2023/12/20 07:47:45;;;;;;;7.18;5.18;;;3.90;99.90;;;;;;4928258;29;20048;-67
2023/12/20 07:50:17;;;;;;;6.57;5.15;;;3.90;99.90;;;;;;4915487;29;20048;-67
2023/12/20 07:52:49;;;;;;;6.82;5.05;;;3.90;99.90;;;;;;4913540;29;20051;-67
2023/12/20 07:55:20;;;;;;;7.40;4.95;;;3.90;99.90;;;;;;4914385;29;20064;-67
2023/12/20 07:57:53;;;;;;;7.07;5.55;;;3.90;99.90;;;;;;4915621;29;20056;-67
2023/12/20 08:00:24;;;;;;;7.88;5.00;;;3.90;99.90;;;;;;4897392;29;20472;-67
2023/12/20 08:02:56;;;;;;;7.78;5.50;;;4.00;99.90;;;;;;4913244;29;20040;-67
2023/12/20 08:05:28;;;;;;;6.72;4.82;;;3.90;99.90;;;;;;4914070;29;20036;-67
2023/12/20 08:08:01;;;;;;;6.65;4.07;;;3.90;99.90;;;;;;4911616;29;20123;-67
2023/12/20 08:10:33;;;;;;;7.40;4.97;;;4.00;99.90;;;;;;4914335;29;20048;-67
2023/12/20 08:13:05;;;;;;;6.30;4.60;;;4.00;99.90;;;;;;4914451;29;20131;-67
2023/12/20 08:15:37;;;;;;;7.30;4.85;;;4.10;99.90;;;;;;4914848;29;20510;-67
2023/12/20 08:18:04;;;;;;;6.53;4.50;;;4.10;99.90;;;;;;4914431;29;20103;-67
2023/12/20 08:20:36;;;;;;;7.25;4.65;;;4.10;99.90;;;;;;4916598;29;20131;-67
2023/12/20 08:23:08;;;;;;;6.40;4.57;;;4.10;99.90;;;;;;4914779;29;20067;-67
2023/12/20 08:25:40;;;;;;;6.25;4.15;;;4.10;99.90;;;;;;4912023;29;20425;-66
2023/12/20 08:28:12;;;;;;;7.55;4.07;;;4.10;99.90;;;;;;4914984;29;20529;-67
2023/12/20 08:30:44;;;;;;;6.35;4.53;;;4.10;99.90;;;;;;4911366;29;20048;-67
2023/12/20 08:33:16;;;;;;;5.32;3.97;;;4.10;99.90;;;;;;4913783;29;20040;-67
2023/12/20 08:35:48;;;;;;;6.20;4.10;;;4.20;99.90;;;;;;4911692;29;20056;-67
2023/12/20 08:38:20;;;;;;;5.85;3.92;;;4.20;99.90;;;;;;4912428;29;20066;-67
2023/12/20 08:40:52;;;;;;;6.40;4.38;;;4.20;99.90;;;;;;4915001;29;20036;-67
2023/12/20 08:43:24;;;;;;;5.28;3.95;;;4.30;99.90;;;;;;4916648;29;20040;-67
2023/12/20 08:45:51;;;;;;;5.25;3.85;;;4.30;99.90;;;;;;4910003;29;20063;-67
2023/12/20 08:48:23;;;;;;;5.63;4.05;;;4.30;99.90;;;;;;4913002;29;20056;-67
2023/12/20 08:50:55;;;;;;;5.80;4.07;;;4.40;99.90;;;;;;4913556;29;20066;-67
2023/12/20 08:53:27;;;;;;;6.72;3.70;;;4.40;99.90;;;;;;4913132;29;20058;-67
2023/12/20 08:56:01;;;;;;;5.45;4.15;;;4.40;99.90;;;;;;4915395;29;20059;-67
2023/12/20 08:58:28;;;;;;;5.25;3.83;;;4.40;99.90;;;;;;4915756;29;20143;-67
2023/12/20 09:01:00;;;;;;;9.23;4.07;;;4.40;99.90;;;;;;4915740;29;20040;-67
2023/12/20 09:03:32;;;;;;;5.68;4.07;;;4.50;99.90;;;;;;4914604;29;20040;-67
2023/12/20 09:05:59;;;;;;;6.45;3.80;;;4.50;99.90;;;;;;4915367;29;20040;-67
2023/12/20 09:08:31;;;;;;;4.72;3.60;;;4.50;99.90;;;;;;4912283;29;20513;-68
2023/12/20 09:11:03;;;;;;;6.95;3.65;;;4.60;99.90;;;;;;4913802;29;20043;-67
2023/12/20 09:13:35;;;;;;;4.55;3.47;;;4.60;99.90;;;;;;4915600;29;20076;-67
2023/12/20 09:16:08;;;;;;;4.55;3.20;;;4.60;99.90;;;;;;4914243;29;20040;-67
2023/12/20 09:18:40;;;;;;;5.07;3.63;;;4.70;99.90;;;;;;4887829;29;20084;-67
2023/12/20 09:21:07;;;;;;;6.22;3.58;;;4.70;99.90;;;;;;4915100;29;20040;-67
2023/12/20 09:23:39;;;;;;;5.38;3.70;;;4.70;99.90;;;;;;4915312;29;20051;-67
2023/12/20 09:26:11;;;;;;;5.43;3.50;;;4.70;99.90;;;;;;4915045;29;20044;-67
2023/12/20 09:28:43;;;;;;;5.65;4.07;;;4.80;99.90;;;;;;4908156;29;20568;-67
2023/12/20 09:31:16;;;;;;;5.30;3.42;;;4.80;99.90;;;;;;4913427;29;20119;-67
2023/12/20 09:33:48;;;;;;;5.40;3.80;;;4.90;99.90;;;;;;4914603;29;20076;-67
2023/12/20 09:36:19;;;;;;;4.40;3.35;;;4.90;99.90;;;;;;4900806;29;20044;-67
2023/12/20 09:38:46;;;;;;;5.55;3.70;;;4.90;99.90;;;;;;4915046;29;20048;-67
2023/12/20 09:41:18;;;;;;;6.13;3.25;;;4.90;99.90;;;;;;4900387;29;20044;-67
2023/12/20 09:43:54;;;;;;;4.85;3.53;;;4.90;99.90;;;;;;4915030;29;20048;-67
2023/12/20 09:46:29;;;;;;;7.18;3.50;;;4.90;99.90;;;;;;4914708;29;20072;-67
2023/12/20 09:49:01;;;;;;;4.47;3.47;;;4.90;99.90;;;;;;4913985;29;20067;-67
2023/12/20 09:51:29;;;;;;;5.35;3.10;;;4.90;99.90;;;;;;4911578;29;20043;-67
2023/12/20 09:54:04;;;;;;;6.45;3.63;;;5.00;99.90;;;;;;4907588;29;20051;-67
2023/12/20 09:56:37;;;;;;;3.90;2.75;;;5.00;99.90;;;;;;4914954;29;20052;-67
2023/12/20 09:59:09;;;;;;;3.95;2.83;;;5.00;99.90;;;;;;4914849;29;20050;-68
2023/12/20 10:01:42;;;;;;;2.80;2.35;;;5.10;99.90;;;;;;4912436;29;20496;-67
2023/12/20 10:04:15;;;;;;;4.63;2.75;;;5.10;99.90;;;;;;4912446;29;20051;-67
2023/12/20 10:06:47;;;;;;;4.75;3.50;;;5.10;99.90;;;;;;4911889;29;20138;-67
2023/12/20 10:09:19;;;;;;;3.78;2.70;;;5.20;99.90;;;;;;4913345;29;20040;-68
2023/12/20 10:11:54;;;;;;;4.18;2.47;;;5.20;99.90;;;;;;4901488;29;20064;-67
2023/12/20 10:14:22;;;;;;;2.70;1.95;;;5.20;99.90;;;;;;4924458;29;20135;-67
2023/12/20 10:17:02;;;;;;;5.25;3.25;;;5.20;99.90;;;;;;4903020;29;20060;-67
2023/12/20 10:19:34;;;;;;;3.25;2.63;;;5.20;99.90;;;;;;4911959;29;20524;-67
2023/12/20 10:22:06;;;;;;;3.72;2.33;;;5.30;99.90;;;;;;4914461;29;20040;-68
2023/12/20 10:24:40;;;;;;;3.03;2.10;;;5.50;99.90;;;;;;4895459;29;20135;-67
2023/12/20 10:27:12;;;;;;;;;;;5.60;99.90;;;;;;4913667;29;20150;-68
2023/12/20 10:29:39;;;;;;;3.95;2.13;;;5.60;99.90;;;;;;4914496;29;19929;-67
2023/12/20 10:32:27;;;;;;;4.70;2.08;;;5.60;99.90;;;;;;4914736;29;20428;-68
2023/12/20 10:34:59;;;;;;;3.03;2.20;;;5.70;99.90;;;;;;4910306;29;20134;-67
2023/12/20 10:37:31;;;;;;;3.08;2.28;;;5.60;99.90;;;;;;4913521;29;20432;-68
2023/12/20 10:40:05;;;;;;;2.83;2.17;;;5.70;99.90;;;;;;4897984;29;20056;-67
2023/12/20 10:42:33;;;;;;;3.13;2.20;;;5.70;99.90;;;;;;4905641;29;20047;-68
2023/12/20 10:45:05;;;;;;;3.72;2.30;;;5.70;99.90;;;;;;4916815;29;20071;-67
2023/12/20 10:47:40;;;;;;;3.72;2.75;;;5.70;99.90;;;;;;4907962;29;20521;-67
2023/12/20 10:50:12;;;;;;;3.28;2.30;;;5.70;99.90;;;;;;4915376;29;20522;-67
2023/12/20 10:52:45;;;;;;;3.35;2.60;;;5.70;99.90;;;;;;4902523;29;20056;-67
2023/12/20 10:55:17;;;;;;;4.28;2.65;;;5.70;99.90;;;;;;4914701;29;20048;-67
2023/12/20 10:57:59;;;;;;;3.25;2.13;;;5.70;99.90;;;;;;4917941;29;20058;-68
2023/12/20 11:00:32;;;;;;;3.60;2.63;;;5.70;99.90;;;;;;4917908;29;20062;-67
2023/12/20 11:03:05;;;;;;;4.85;2.60;;;5.70;99.90;;;;;;4928724;29;20044;-67
2023/12/20 11:05:55;;;;;;;3.05;2.45;;;5.70;99.90;;;;;;4917527;29;20079;-67
2023/12/20 11:08:41;;;;;;;5.25;3.13;;;5.70;99.90;;;;;;4917702;29;20076;-68
2023/12/20 11:11:29;;;;;;;2.50;2.10;;;5.70;99.90;;;;;;4916402;29;20052;-68
2023/12/20 11:14:05;;;;;;;2.50;2.25;;;5.70;99.90;;;;;;4917586;29;20501;-67
2023/12/20 11:16:38;;;;;;;4.60;2.55;;;5.70;99.90;;;;;;4917671;29;20564;-68
2023/12/20 11:19:13;;;;;;;3.80;2.17;;;5.80;99.90;;;;;;4917465;29;20051;-67
2023/12/20 11:21:46;;;;;;;3.70;2.50;;;5.70;99.90;;;;;;4917320;29;20040;-67
2023/12/20 11:24:24;;;;;;;3.30;2.50;;;5.70;99.90;;;;;;4901987;29;20410;-67
2023/12/20 11:26:56;;;;;;;3.28;2.42;;;5.70;99.90;;;;;;4916000;29;20292;-67
2023/12/20 11:29:34;;;;;;;3.70;2.10;;;5.70;99.90;;;;;;4913712;29;20047;-67
2023/12/20 11:32:25;;;;;;;2.92;1.98;;;5.80;99.90;;;;;;4914465;29;20068;-67
2023/12/20 11:35:01;;;;;;;2.88;2.30;;;5.80;99.90;;;;;;4914266;29;20076;-67
2023/12/20 11:37:31;;;;;;;2.28;1.65;;;5.80;99.90;;;;;;4912755;29;20044;-67
2023/12/20 11:40:05;;;;;;;2.00;1.25;;;5.70;99.90;;;;;;4909404;29;20132;-67
2023/12/20 11:42:40;;;;;;;2.60;1.40;;;5.40;99.90;;;;;;4903269;29;20139;-67
2023/12/20 11:45:15;;;;;;;3.38;1.75;;;5.20;99.90;;;;;;4913681;29;20037;-67
2023/12/20 11:47:55;;;;;;;2.20;1.63;;;5.10;99.90;;;;;;4915789;29;20070;-67
2023/12/20 11:50:23;;;;;;;1.63;1.27;;;4.90;99.90;;;;;;4916624;29;20131;-67
2023/12/20 11:52:53;;;;;;;3.30;1.55;;;4.80;99.90;;;;;;4917874;29;20054;-67
2023/12/20 11:55:20;;;;;;;1.85;1.50;;;4.70;99.90;;;;;;4895034;29;20048;-67
2023/12/20 11:57:52;;;;;;;1.80;1.30;;;4.70;99.90;;;;;;4915951;29;20051;-67
2023/12/20 12:00:25;;;;;;;2.65;1.30;;;4.60;99.90;;;;;;4915694;29;20048;-67
2023/12/20 12:02:58;;;;;;;4.45;1.58;;;4.50;99.90;;;;;;4913326;29;20544;-67
2023/12/20 12:05:31;;;;;;;3.08;2.30;;;4.50;99.90;;;;;;4914684;29;20048;-67
2023/12/20 12:07:58;;;;;;;3.28;1.60;;;4.40;99.90;;;;;;4909316;29;20064;-67
2023/12/20 12:10:25;;;;;;;2.55;1.45;;;4.50;99.90;;;;;;4916582;29;20056;-67
2023/12/20 12:12:57;;;;;;;2.00;1.45;;;4.60;99.90;;;;;;4916823;29;20056;-67
2023/12/20 12:15:30;;;;;;;3.25;1.52;;;4.60;99.90;;;;;;4916338;29;20044;-67
2023/12/20 12:18:02;;;;;;;4.45;3.13;;;4.60;99.90;;;;;;4915240;29;20127;-67
2023/12/20 12:20:34;;;;;;;2.08;1.42;;;4.60;99.90;;;;;;4897645;29;20046;-67
2023/12/20 12:23:06;;;;;;;3.33;1.50;;;4.70;99.90;;;;;;4916215;29;20394;-67
2023/12/20 12:25:38;;;;;;;4.50;2.10;;;4.70;99.90;;;;;;4915581;29;20050;-67
2023/12/20 12:28:05;;;;;;;4.18;1.63;;;4.80;99.90;;;;;;4915937;29;20123;-67
2023/12/20 12:30:37;;;;;;;2.33;1.30;;;4.90;99.90;;;;;;4928790;29;20059;-67
2023/12/20 12:33:09;;;;;;;2.97;1.40;;;4.90;99.90;;;;;;4896487;29;20055;-67
2023/12/20 12:35:41;;;;;;;2.40;1.48;;;4.90;99.90;;;;;;4914844;29;20127;-67
2023/12/20 12:38:13;;;;;;;2.72;1.63;;;5.00;99.90;;;;;;4912223;29;20044;-67
2023/12/20 12:40:48;;;;;;;3.45;1.70;;;5.10;99.90;;;;;;4913015;29;20079;-67
2023/12/20 12:43:19;;;;;;;4.07;2.33;;;5.10;99.90;;;;;;4913017;29;20036;-67
2023/12/20 12:45:47;;;;;;;4.63;2.63;;;5.10;99.90;;;;;;4915319;29;20040;-67
2023/12/20 12:48:18;;;;;;;4.65;3.47;;;5.10;99.90;;;;;;4914272;29;20048;-67
2023/12/20 12:50:52;;;;;;;3.10;1.77;;;5.10;99.90;;;;;;4914056;29;20052;-67
2023/12/20 12:53:23;;;;;;;6.47;3.38;;;5.10;99.90;;;;;;4913614;29;20048;-67
2023/12/20 12:55:55;;;;;;;8.60;5.18;;;5.00;99.90;;;;;;4914066;29;20059;-67
2023/12/20 12:58:27;;;;;;;6.45;4.45;;;5.00;99.90;;;;;;4914587;29;20036;-67
2023/12/20 13:00:59;;;;;;;3.10;1.75;;;5.00;99.90;;;;;;4915298;29;20043;-67
2023/12/20 13:03:26;;;;;;;4.82;3.78;;;5.10;99.90;;;;;;4914069;29;20036;-67
2023/12/20 13:05:58;;;;;;;2.20;1.27;;;5.00;99.90;;;;;;4912310;29;20040;-67
2023/12/20 13:08:25;;;;;;;3.33;2.10;;;5.00;99.90;;;;;;4913368;29;20040;-68
2023/12/20 13:11:00;;;;;;;2.95;2.10;;;5.10;99.90;;;;;;4912751;29;20418;-67
2023/12/20 13:13:32;;;;;;;4.43;2.90;;;5.30;99.90;;;;;;4913902;29;20075;-67
2023/12/20 13:16:04;;;;;;;1.98;1.45;;;5.40;99.90;;;;;;4910861;29;20058;-67
2023/12/20 13:18:31;;;;;;;3.17;1.67;;;5.50;99.90;;;;;;4914085;29;20044;-67
2023/12/20 13:21:03;;;;;;;7.10;1.83;;;5.50;99.90;;;;;;4904520;29;20040;-67